createdAt,value
2023-02-25T00:01:39.321Z,7.21
2023-02-25T00:04:06.762Z,7.26
2023-02-25T00:06:34.078Z,7.32
2023-02-25T00:09:01.461Z,7.40
2023-02-25T00:11:30.251Z,7.22
2023-02-25T00:13:57.391Z,7.34
2023-02-25T00:16:25.959Z,6.99
2023-02-25T00:18:57.433Z,7.03
2023-02-25T00:21:25.377Z,6.83
2023-02-25T00:23:53.723Z,6.83
2023-02-25T00:26:22.628Z,6.88
2023-02-25T00:28:50.702Z,6.71
2023-02-25T00:31:22.708Z,6.60
2023-02-25T00:33:51.728Z,6.52
2023-02-25T00:36:23.374Z,6.43
2023-02-25T00:38:56.384Z,6.53
2023-02-25T00:41:30.712Z,6.23
2023-02-25T00:44:01.066Z,6.12
2023-02-25T00:46:30.882Z,6.16
2023-02-25T00:48:59.096Z,6.07
2023-02-25T00:51:30.216Z,5.91
2023-02-25T00:53:58.054Z,6.00
2023-02-25T00:56:26.283Z,5.87
2023-02-25T00:58:54.117Z,5.95
2023-02-25T01:01:27.839Z,5.84
2023-02-25T01:03:56.895Z,5.72
2023-02-25T01:06:28.350Z,5.92
2023-02-25T01:08:56.986Z,5.91
2023-02-25T01:11:31.559Z,5.71
2023-02-25T01:14:07.022Z,5.75
2023-02-25T01:16:36.304Z,5.71
2023-02-25T01:19:13.727Z,5.68
2023-02-25T01:21:48.473Z,5.61
2023-02-25T01:24:21.280Z,5.86
2023-02-25T01:26:51.744Z,5.84
2023-02-25T01:29:23.248Z,5.76
2023-02-25T01:32:00.856Z,5.78
2023-02-25T01:34:29.634Z,5.82
2023-02-25T01:36:57.290Z,5.71
2023-02-25T01:39:26.736Z,5.80
2023-02-25T01:41:56.851Z,5.76
2023-02-25T01:44:25.786Z,5.84
2023-02-25T01:46:54.949Z,5.78
2023-02-25T01:49:55.651Z,5.77
2023-02-25T01:52:25.302Z,5.76
2023-02-25T01:54:57.238Z,5.76
2023-02-25T01:57:26.029Z,5.81
2023-02-25T01:59:55.045Z,5.76
2023-02-25T02:02:27.770Z,5.81
2023-02-25T02:04:55.920Z,5.72
2023-02-25T02:07:24.913Z,5.78
2023-02-25T02:10:00.180Z,5.66
2023-02-25T02:12:35.722Z,5.74
2023-02-25T02:15:08.642Z,5.71
2023-02-25T02:18:02.667Z,5.71
2023-02-25T02:20:57.743Z,5.86
2023-02-25T02:23:59.770Z,5.84
2023-02-25T02:26:52.193Z,5.93
2023-02-25T02:29:22.009Z,5.96
2023-02-25T02:32:21.452Z,5.83
2023-02-25T02:35:35.494Z,5.93
2023-02-25T02:38:35.964Z,5.78
2023-02-25T02:41:35.634Z,5.84
2023-02-25T02:44:34.198Z,5.83
2023-02-25T02:47:09.679Z,5.78
2023-02-25T02:49:46.874Z,5.86
2023-02-25T02:52:24.273Z,5.72
2023-02-25T02:55:22.633Z,5.61
2023-02-25T02:57:59.775Z,5.53
2023-02-25T03:00:34.443Z,5.50
2023-02-25T03:03:36.653Z,5.52
2023-02-25T03:06:13.222Z,5.46
2023-02-25T03:09:11.025Z,5.48
2023-02-25T03:11:38.542Z,5.14
2023-02-25T03:14:09.174Z,5.15
2023-02-25T03:16:45.511Z,4.94
2023-02-25T03:19:21.773Z,4.80
2023-02-25T03:22:23.350Z,4.78
2023-02-25T03:25:31.086Z,4.74
2023-02-25T03:28:30.652Z,4.65
2023-02-25T03:31:21.723Z,4.65
2023-02-25T03:34:08.358Z,4.53
2023-02-25T03:36:42.344Z,4.50
2023-02-25T03:39:21.643Z,4.52
2023-02-25T03:41:54.531Z,4.37
2023-02-25T03:44:28.570Z,4.32
2023-02-25T03:46:57.599Z,4.37
2023-02-25T03:49:51.972Z,4.34
2023-02-25T03:52:23.284Z,4.47
2023-02-25T03:54:57.342Z,4.52
2023-02-25T03:57:35.137Z,4.41
2023-02-25T04:00:15.616Z,4.33
2023-02-25T04:02:44.250Z,4.59
2023-02-25T04:05:12.976Z,4.48
2023-02-25T04:07:40.632Z,4.54
2023-02-25T04:10:10.787Z,4.11
2023-02-25T04:12:38.219Z,4.29
2023-02-25T04:15:07.297Z,4.15
2023-02-25T04:17:35.494Z,4.22
2023-02-25T04:20:03.445Z,4.30
2023-02-25T04:22:31.184Z,4.21
2023-02-25T04:24:58.470Z,4.07
2023-02-25T04:27:27.343Z,4.04
2023-02-25T04:29:54.629Z,3.87
2023-02-25T04:32:22.032Z,4.05
2023-02-25T04:34:49.410Z,3.98
2023-02-25T04:37:17.363Z,3.87
2023-02-25T04:39:44.557Z,3.84
2023-02-25T04:42:11.799Z,3.92
2023-02-25T04:44:38.999Z,3.87
2023-02-25T04:47:06.420Z,3.92
2023-02-25T04:49:44.964Z,3.97
2023-02-25T04:52:15.927Z,3.97
2023-02-25T04:54:43.217Z,3.87
2023-02-25T04:57:12.192Z,3.82
2023-02-25T04:59:39.604Z,3.76
2023-02-25T05:02:07.903Z,3.68
2023-02-25T05:04:39.593Z,3.74
2023-02-25T05:07:08.112Z,3.79
2023-02-25T05:09:35.532Z,3.73
2023-02-25T05:12:03.254Z,3.85
2023-02-25T05:14:32.868Z,3.79
2023-02-25T05:17:00.179Z,3.98
2023-02-25T05:19:27.378Z,4.04
2023-02-25T05:21:54.660Z,3.88
2023-02-25T05:24:23.733Z,4.08
2023-02-25T05:26:54.233Z,3.78
2023-02-25T05:29:21.625Z,3.86
2023-02-25T05:31:51.797Z,3.87
2023-02-25T05:34:19.267Z,3.67
2023-02-25T05:36:46.916Z,3.75
2023-02-25T05:39:14.615Z,3.57
2023-02-25T05:41:42.143Z,3.58
2023-02-25T05:44:11.733Z,3.42
2023-02-25T05:46:38.973Z,3.28
2023-02-25T05:49:06.249Z,3.37
2023-02-25T05:51:33.546Z,3.24
2023-02-25T05:54:00.738Z,3.27
2023-02-25T05:56:31.687Z,3.29
2023-02-25T05:58:59.578Z,3.18
2023-02-25T06:01:29.515Z,3.33
2023-02-25T06:04:00.252Z,3.28
2023-02-25T06:06:31.042Z,3.41
2023-02-25T06:08:58.920Z,3.44
2023-02-25T06:11:30.806Z,3.59
2023-02-25T06:13:59.596Z,3.64
2023-02-25T06:16:32.678Z,3.64
2023-02-25T06:19:01.409Z,3.70
2023-02-25T06:21:29.256Z,3.61
2023-02-25T06:23:56.693Z,3.76
2023-02-25T06:26:24.194Z,3.53
2023-02-25T06:28:51.596Z,3.70
2023-02-25T06:31:20.657Z,3.74
2023-02-25T06:33:48.753Z,3.79
2023-02-25T06:36:16.401Z,3.90
2023-02-25T06:38:46.087Z,3.79
2023-02-25T06:41:17.954Z,3.94
2023-02-25T06:43:46.265Z,3.75
2023-02-25T06:46:15.200Z,3.85
2023-02-25T06:48:42.620Z,3.96
2023-02-25T06:51:10.738Z,3.91
2023-02-25T06:53:39.888Z,4.08
2023-02-25T06:56:10.792Z,4.10
2023-02-25T06:58:39.046Z,4.27
2023-02-25T07:01:14.006Z,4.04
2023-02-25T07:03:43.669Z,4.07
2023-02-25T07:06:11.567Z,4.13
2023-02-25T07:08:38.919Z,4.30
2023-02-25T07:11:33.708Z,3.99
2023-02-25T07:14:01.669Z,4.14
2023-02-25T07:16:34.697Z,4.51
2023-02-25T07:19:02.610Z,5.08
2023-02-25T07:21:31.155Z,5.00
2023-02-25T07:23:58.798Z,4.89
2023-02-25T07:26:28.506Z,5.91
2023-02-25T07:28:59.848Z,5.83
2023-02-25T07:31:28.938Z,6.40
2023-02-25T07:33:57.749Z,7.38
2023-02-25T07:36:26.198Z,7.33
2023-02-25T07:38:54.392Z,7.65
2023-02-25T07:41:23.238Z,8.06
2023-02-25T07:43:50.718Z,8.62
2023-02-25T07:46:18.067Z,7.39
2023-02-25T07:48:45.489Z,7.71
2023-02-25T07:51:18.600Z,7.99
2023-02-25T07:53:47.968Z,9.70
2023-02-25T07:56:18.457Z,9.07
2023-02-25T07:58:46.482Z,10.96
2023-02-25T08:01:27.045Z,7.51
2023-02-25T08:03:56.643Z,7.39
2023-02-25T08:06:23.948Z,6.08
2023-02-25T08:08:52.197Z,5.72
2023-02-25T08:11:22.199Z,5.45
2023-02-25T08:13:50.015Z,5.12
2023-02-25T08:16:19.531Z,4.93
2023-02-25T08:18:47.865Z,5.90
2023-02-25T08:21:18.443Z,6.35
2023-02-25T08:23:46.156Z,6.43
2023-02-25T08:26:13.424Z,6.17
2023-02-25T08:28:40.695Z,7.18
2023-02-25T08:31:11.657Z,6.23
2023-02-25T08:33:45.683Z,6.32
2023-02-25T08:36:26.962Z,6.23
2023-02-25T08:38:57.439Z,5.91
2023-02-25T08:41:28.382Z,5.65
2023-02-25T08:43:57.991Z,5.60
2023-02-25T08:46:28.412Z,5.07
2023-02-25T08:48:56.356Z,5.15
2023-02-25T08:51:34.138Z,4.91
2023-02-25T08:54:14.270Z,4.96
2023-02-25T08:56:45.533Z,5.04
2023-02-25T08:59:16.209Z,5.08
2023-02-25T09:01:48.374Z,5.49
2023-02-25T09:04:20.106Z,5.13
2023-02-25T09:06:47.964Z,5.12
2023-02-25T09:09:20.540Z,5.19
2023-02-25T09:11:49.316Z,4.97
2023-02-25T09:14:17.312Z,5.42
2023-02-25T09:16:45.022Z,5.73
2023-02-25T09:19:15.838Z,5.16
2023-02-25T09:21:43.037Z,5.33
2023-02-25T09:24:10.709Z,5.30
2023-02-25T09:26:38.446Z,4.67
2023-02-25T09:29:07.600Z,4.62
2023-02-25T09:31:37.603Z,4.39
2023-02-25T09:34:09.961Z,4.31
2023-02-25T09:36:37.362Z,4.30
2023-02-25T09:39:10.305Z,4.24
2023-02-25T09:41:55.535Z,4.38
2023-02-25T09:44:51.245Z,4.45
2023-02-25T09:47:40.308Z,4.35
2023-02-25T09:50:18.608Z,3.91
2023-02-25T09:53:15.672Z,3.91
2023-02-25T09:55:47.807Z,3.80
2023-02-25T09:58:41.146Z,3.72
2023-02-25T10:01:18.965Z,4.01
2023-02-25T10:04:20.769Z,4.41
2023-02-25T10:06:51.191Z,4.66
2023-02-25T10:10:22.022Z,5.03
2023-02-25T10:13:16.828Z,4.96
2023-02-25T10:16:11.080Z,4.82
2023-02-25T10:19:01.546Z,5.23
2023-02-25T10:22:02.138Z,4.99
2023-02-25T10:24:37.396Z,5.52
2023-02-25T10:27:33.939Z,5.41
2023-02-25T10:30:45.064Z,5.00
2023-02-25T10:33:38.201Z,5.03
2023-02-25T10:36:10.820Z,5.30
2023-02-25T10:38:52.064Z,5.08
2023-02-25T10:41:23.517Z,5.19
2023-02-25T10:43:51.813Z,5.38
2023-02-25T10:46:54.716Z,6.05
2023-02-25T10:49:29.212Z,6.09
2023-02-25T10:52:05.223Z,6.10
2023-02-25T10:54:36.157Z,6.03
2023-02-25T10:57:13.700Z,5.94
2023-02-25T10:59:43.474Z,5.83
2023-02-25T11:02:30.399Z,6.01
2023-02-25T11:04:58.246Z,6.15
2023-02-25T11:07:30.960Z,5.78
2023-02-25T11:10:21.932Z,5.48
2023-02-25T11:12:55.236Z,5.66
2023-02-25T11:15:37.873Z,5.80
2023-02-25T11:18:29.812Z,5.84
2023-02-25T11:21:01.982Z,5.93
2023-02-25T11:23:46.620Z,5.39
2023-02-25T11:26:33.716Z,5.22
2023-02-25T11:29:19.037Z,5.18
2023-02-25T11:31:57.899Z,5.33
2023-02-25T11:34:31.971Z,5.53
2023-02-25T11:37:43.382Z,5.31
2023-02-25T11:40:32.902Z,5.55
2023-02-25T11:43:03.191Z,5.13
2023-02-25T11:45:33.482Z,5.04
2023-02-25T11:48:04.567Z,4.95
2023-02-25T11:50:53.967Z,5.17
2023-02-25T11:53:39.196Z,5.08
2023-02-25T11:56:27.380Z,5.18
2023-02-25T11:59:45.825Z,4.69
2023-02-25T12:02:20.865Z,4.79
2023-02-25T12:05:28.521Z,4.92
2023-02-25T12:08:33.119Z,4.85
2023-02-25T12:11:03.195Z,4.96
2023-02-25T12:14:21.689Z,5.45
2023-02-25T12:17:20.520Z,5.56
2023-02-25T12:20:24.956Z,5.35
2023-02-25T12:23:26.241Z,5.38
2023-02-25T12:26:34.708Z,5.18
2023-02-25T12:29:38.565Z,5.49
2023-02-25T12:32:22.857Z,5.40
2023-02-25T12:35:07.758Z,5.33
2023-02-25T12:38:00.237Z,5.42
2023-02-25T12:40:36.566Z,5.23
2023-02-25T12:43:27.823Z,4.90
2023-02-25T12:46:47.739Z,4.94
2023-02-25T12:49:52.444Z,5.03
2023-02-25T12:52:28.846Z,5.08
2023-02-25T12:55:40.816Z,5.13
2023-02-25T12:58:45.281Z,5.21
2023-02-25T13:01:39.923Z,5.38
2023-02-25T13:04:56.123Z,5.23
2023-02-25T13:07:29.234Z,5.26
2023-02-25T13:10:04.148Z,4.90
2023-02-25T13:12:58.439Z,5.29
2023-02-25T13:16:01.464Z,5.24
2023-02-25T13:19:06.477Z,5.88
2023-02-25T13:21:52.215Z,5.78
2023-02-25T13:24:57.097Z,6.01
2023-02-25T13:27:56.275Z,6.10
2023-02-25T13:30:44.313Z,5.98
2023-02-25T13:33:46.205Z,5.82
2023-02-25T13:36:48.836Z,5.55
2023-02-25T13:39:54.597Z,5.54
2023-02-25T13:43:05.723Z,5.77
2023-02-25T13:46:25.200Z,5.81
2023-02-25T13:49:41.131Z,5.47
2023-02-25T13:52:53.646Z,5.78
2023-02-25T13:55:53.900Z,5.87
2023-02-25T13:59:27.110Z,5.69
2023-02-25T14:02:35.040Z,5.03
2023-02-25T14:05:56.289Z,5.53
2023-02-25T14:09:02.109Z,5.45
2023-02-25T14:11:57.733Z,5.51
2023-02-25T14:15:14.148Z,5.20
2023-02-25T14:18:31.101Z,5.19
2023-02-25T14:21:27.868Z,5.15
2023-02-25T14:23:56.421Z,5.23
2023-02-25T14:26:33.632Z,5.13
2023-02-25T14:29:34.606Z,5.44
2023-02-25T14:32:29.904Z,5.33
2023-02-25T14:35:47.615Z,5.35
2023-02-25T14:38:37.783Z,4.93
2023-02-25T14:41:33.672Z,4.90
2023-02-25T14:44:14.754Z,5.00
2023-02-25T14:46:50.683Z,5.32
2023-02-25T14:49:33.475Z,5.18
2023-02-25T14:52:46.092Z,5.16
2023-02-25T14:55:43.627Z,4.97
2023-02-25T14:59:00.720Z,5.09
2023-02-25T15:01:54.727Z,5.15
2023-02-25T15:05:04.774Z,4.93
2023-02-25T15:08:21.175Z,5.08
2023-02-25T15:11:16.978Z,4.77
2023-02-25T15:14:07.699Z,4.51
2023-02-25T15:16:55.538Z,4.10
2023-02-25T15:19:25.264Z,4.04
2023-02-25T15:22:21.626Z,3.86
2023-02-25T15:24:52.479Z,3.92
2023-02-25T15:27:33.108Z,3.91
2023-02-25T15:30:05.818Z,3.77
2023-02-25T15:32:57.563Z,4.11
2023-02-25T15:35:54.057Z,4.27
2023-02-25T15:38:50.339Z,4.35
2023-02-25T15:41:29.973Z,4.28
2023-02-25T15:43:57.760Z,4.01
2023-02-25T15:46:34.270Z,4.01
2023-02-25T15:49:35.413Z,3.78
2023-02-25T15:52:06.407Z,3.85
2023-02-25T15:54:33.489Z,3.83
2023-02-25T15:57:22.208Z,3.88
2023-02-25T15:59:57.731Z,3.96
2023-02-25T16:02:30.809Z,3.39
2023-02-25T16:05:09.852Z,3.20
2023-02-25T16:07:52.990Z,3.16
2023-02-25T16:10:44.691Z,3.25
2023-02-25T16:13:40.110Z,3.14
2023-02-25T16:16:10.640Z,3.08
2023-02-25T16:18:47.758Z,3.23
2023-02-25T16:21:17.888Z,3.28
2023-02-25T16:23:45.304Z,3.38
2023-02-25T16:27:03.514Z,3.49
2023-02-25T16:29:49.310Z,3.20
2023-02-25T16:32:33.119Z,3.19
2023-02-25T16:35:23.762Z,2.83
2023-02-25T16:38:39.012Z,2.79
2023-02-25T16:41:06.342Z,2.98
2023-02-25T16:43:39.531Z,2.81
2023-02-25T16:46:13.699Z,2.73
2023-02-25T16:48:54.869Z,3.00
2023-02-25T16:51:41.462Z,2.98
2023-02-25T16:54:38.125Z,3.01
2023-02-25T16:57:09.453Z,2.95
2023-02-25T16:59:38.868Z,2.95
2023-02-25T17:02:15.092Z,2.98
2023-02-25T17:05:22.143Z,2.99
2023-02-25T17:07:56.715Z,3.05
2023-02-25T17:10:47.039Z,3.12
2023-02-25T17:13:24.588Z,3.26
2023-02-25T17:15:53.155Z,2.87
2023-02-25T17:18:32.789Z,2.83
2023-02-25T17:21:35.737Z,2.94
2023-02-25T17:24:11.791Z,2.81
2023-02-25T17:26:48.872Z,2.75
2023-02-25T17:29:18.433Z,2.62
2023-02-25T17:31:50.875Z,2.72
2023-02-25T17:34:30.429Z,2.71
2023-02-25T17:37:04.374Z,2.68
2023-02-25T17:39:32.755Z,2.64
2023-02-25T17:42:00.256Z,2.82
2023-02-25T17:44:36.840Z,2.58
2023-02-25T17:47:08.283Z,2.79
2023-02-25T17:49:37.965Z,2.68
2023-02-25T17:52:19.550Z,2.26
2023-02-25T17:55:01.029Z,2.53
2023-02-25T17:57:32.108Z,2.62
2023-02-25T18:00:20.638Z,2.70
2023-02-25T18:02:48.030Z,2.77
2023-02-25T18:05:18.662Z,2.82
2023-02-25T18:08:22.122Z,2.76
2023-02-25T18:10:58.080Z,2.75
2023-02-25T18:13:35.296Z,2.68
2023-02-25T18:16:41.259Z,2.50
2023-02-25T18:19:32.765Z,2.54
2023-02-25T18:22:00.217Z,2.58
2023-02-25T18:24:36.496Z,2.52
2023-02-25T18:27:26.927Z,2.25
2023-02-25T18:29:58.630Z,2.49
2023-02-25T18:32:27.641Z,2.39
2023-02-25T18:34:55.021Z,2.59
2023-02-25T18:37:22.317Z,2.60
2023-02-25T18:39:51.350Z,2.43
2023-02-25T18:42:19.240Z,2.36
2023-02-25T18:44:47.661Z,2.06
2023-02-25T18:47:16.884Z,2.35
2023-02-25T18:49:45.533Z,2.47
2023-02-25T18:52:25.248Z,2.29
2023-02-25T18:54:52.501Z,2.01
2023-02-25T18:57:26.523Z,1.90
2023-02-25T18:59:54.024Z,2.23
2023-02-25T19:02:45.774Z,2.27
2023-02-25T19:05:13.126Z,2.25
2023-02-25T19:07:40.566Z,2.17
2023-02-25T19:10:09.076Z,1.86
2023-02-25T19:12:36.445Z,1.75
2023-02-25T19:15:08.683Z,1.89
2023-02-25T19:17:36.034Z,1.98
2023-02-25T19:20:04.442Z,2.06
2023-02-25T19:22:31.724Z,2.15
2023-02-25T19:24:59.323Z,2.02
2023-02-25T19:27:29.143Z,1.91
2023-02-25T19:29:59.648Z,2.06
2023-02-25T19:32:27.305Z,1.43
2023-02-25T19:34:55.071Z,1.39
2023-02-25T19:37:22.349Z,1.27
2023-02-25T19:39:49.652Z,1.27
2023-02-25T19:42:16.924Z,1.14
2023-02-25T19:44:44.274Z,1.20
2023-02-25T19:47:11.535Z,1.24
2023-02-25T19:49:38.816Z,1.33
2023-02-25T19:52:06.385Z,1.47
2023-02-25T19:54:33.708Z,1.38
2023-02-25T19:57:01.770Z,1.57
2023-02-25T19:59:31.024Z,1.44
2023-02-25T20:01:58.497Z,1.57
2023-02-25T20:04:25.910Z,1.55
2023-02-25T20:06:53.203Z,1.35
2023-02-25T20:09:20.852Z,1.50
2023-02-25T20:11:48.951Z,1.56
2023-02-25T20:14:17.418Z,1.26
2023-02-25T20:16:45.127Z,1.60
2023-02-25T20:19:12.461Z,1.43
2023-02-25T20:21:39.787Z,1.48
2023-02-25T20:24:07.376Z,1.40
2023-02-25T20:26:34.887Z,1.29
2023-02-25T20:29:02.419Z,1.54
2023-02-25T20:31:30.399Z,1.67
2023-02-25T20:34:01.353Z,1.41
2023-02-25T20:36:51.539Z,1.32
2023-02-25T20:39:37.519Z,1.56
2023-02-25T20:42:20.874Z,1.56
2023-02-25T20:44:51.521Z,1.34
2023-02-25T20:47:25.125Z,1.11
2023-02-25T20:49:54.997Z,1.19
2023-02-25T20:52:22.571Z,1.06
2023-02-25T20:54:50.046Z,1.04
2023-02-25T20:57:20.963Z,1.22
2023-02-25T20:59:48.619Z,1.39
2023-02-25T21:02:18.416Z,1.33
2023-02-25T21:04:46.703Z,1.21
2023-02-25T21:07:14.666Z,1.46
2023-02-25T21:09:42.195Z,1.57
2023-02-25T21:12:10.348Z,1.49
2023-02-25T21:14:37.617Z,1.22
2023-02-25T21:17:09.544Z,1.36
2023-02-25T21:19:40.124Z,1.48
2023-02-25T21:22:08.597Z,1.53
2023-02-25T21:24:36.871Z,1.28
2023-02-25T21:27:04.915Z,1.42
2023-02-25T21:29:32.574Z,1.34
2023-02-25T21:31:59.871Z,1.34
2023-02-25T21:34:27.406Z,1.22
2023-02-25T21:36:58.453Z,1.27
2023-02-25T21:39:26.213Z,1.44
2023-02-25T21:41:53.672Z,1.34
2023-02-25T21:44:21.138Z,1.24
2023-02-25T21:46:48.542Z,1.44
2023-02-25T21:49:15.768Z,1.23
2023-02-25T21:51:43.258Z,1.37
2023-02-25T21:54:10.796Z,1.29
2023-02-25T21:56:40.142Z,1.30
2023-02-25T21:59:07.304Z,1.33
2023-02-25T22:01:40.893Z,1.22
2023-02-25T22:04:09.911Z,1.46
2023-02-25T22:06:38.121Z,1.64
2023-02-25T22:09:07.031Z,1.14
2023-02-25T22:11:37.075Z,1.28
2023-02-25T22:14:07.969Z,1.00
2023-02-25T22:16:37.345Z,1.14
2023-02-25T22:19:05.475Z,0.90
2023-02-25T22:21:35.571Z,0.84
2023-02-25T22:24:05.712Z,1.00
2023-02-25T22:26:35.630Z,0.82
2023-02-25T22:29:08.264Z,0.87
2023-02-25T22:31:36.191Z,0.99
2023-02-25T22:34:03.983Z,0.73
2023-02-25T22:36:31.510Z,0.87
2023-02-25T22:38:58.818Z,0.91
2023-02-25T22:41:28.971Z,0.98
2023-02-25T22:43:58.364Z,0.90
2023-02-25T22:46:29.499Z,0.93
2023-02-25T22:48:57.710Z,0.62
2023-02-25T22:51:35.582Z,0.87
2023-02-25T22:54:04.850Z,0.63
2023-02-25T22:56:33.873Z,0.84
2023-02-25T22:59:01.489Z,0.86
2023-02-25T23:01:28.798Z,0.90
2023-02-25T23:03:57.184Z,0.71
2023-02-25T23:06:42.284Z,0.76
2023-02-25T23:09:10.702Z,0.57
2023-02-25T23:11:41.718Z,0.78
2023-02-25T23:14:09.031Z,0.81
2023-02-25T23:16:43.447Z,0.75
2023-02-25T23:19:15.828Z,0.85
2023-02-25T23:21:44.033Z,0.74
2023-02-25T23:24:18.641Z,0.68
2023-02-25T23:26:50.746Z,0.59
2023-02-25T23:29:18.442Z,0.84
2023-02-25T23:31:47.851Z,0.53
2023-02-25T23:34:22.941Z,0.82
2023-02-25T23:36:50.746Z,0.84
2023-02-25T23:39:18.413Z,0.86
2023-02-25T23:41:45.930Z,0.75
2023-02-25T23:44:14.344Z,0.80
2023-02-25T23:46:43.470Z,0.90
2023-02-25T23:49:15.732Z,0.79
2023-02-25T23:51:45.898Z,0.82
2023-02-25T23:54:16.833Z,0.92
2023-02-25T23:56:45.072Z,0.75
2023-02-25T23:59:13.427Z,0.83
